sensor_id;sensor_type;location;lat;lon;timestamp;P1;durP1;ratioP1;P2;durP2;ratioP2
41229;SDS011;26964;50.428;19.218;2023-09-19T00:00:34;27.9;;;16.0;;
41229;SDS011;26964;50.428;19.218;2023-09-19T00:01:32;27.3;;;16.1;;
41229;SDS011;26964;50.428;19.218;2023-09-19T00:02:32;26.1;;;15.6;;
41229;SDS011;26964;50.428;19.218;2023-09-19T00:03:32;27.9;;;15.6;;
41229;SDS011;26964;50.428;19.218;2023-09-19T00:04:32;28.5;;;15.5;;
41229;SDS011;26964;50.428;19.218;2023-09-19T00:05:33;30.7;;;16.8;;
41229;SDS011;26964;50.428;19.218;2023-09-19T00:06:32;26.9;;;15.7;;
41229;SDS011;26964;50.428;19.218;2023-09-19T00:07:32;29.9;;;16.2;;
41229;SDS011;26964;50.428;19.218;2023-09-19T00:08:33;26.4;;;14.5;;
41229;SDS011;26964;50.428;19.218;2023-09-19T00:09:32;26.6;;;15.6;;
41229;SDS011;26964;50.428;19.218;2023-09-19T00:10:33;27.9;;;15.1;;
41229;SDS011;26964;50.428;19.218;2023-09-19T00:11:32;26.8;;;14.5;;
41229;SDS011;26964;50.428;19.218;2023-09-19T00:12:32;30.2;;;16.1;;
41229;SDS011;26964;50.428;19.218;2023-09-19T00:13:32;25.4;;;14.5;;
41229;SDS011;26964;50.428;19.218;2023-09-19T00:14:32;28.4;;;15.2;;
41229;SDS011;26964;50.428;19.218;2023-09-19T00:16:33;23.7;;;14.5;;
41229;SDS011;26964;50.428;19.218;2023-09-19T00:17:32;24.8;;;14.6;;
41229;SDS011;26964;50.428;19.218;2023-09-19T00:18:32;27.8;;;15.6;;
41229;SDS011;26964;50.428;19.218;2023-09-19T00:19:32;25.5;;;14.6;;
41229;SDS011;26964;50.428;19.218;2023-09-19T00:20:35;23.7;;;14.1;;
41229;SDS011;26964;50.428;19.218;2023-09-19T00:21:32;30.5;;;15.0;;
41229;SDS011;26964;50.428;19.218;2023-09-19T00:22:32;27.1;;;14.5;;
41229;SDS011;26964;50.428;19.218;2023-09-19T00:23:32;26.9;;;14.9;;
41229;SDS011;26964;50.428;19.218;2023-09-19T00:24:32;22.5;;;14.1;;
41229;SDS011;26964;50.428;19.218;2023-09-19T00:25:32;25.2;;;14.9;;
41229;SDS011;26964;50.428;19.218;2023-09-19T00:26:32;27.7;;;14.9;;
41229;SDS011;26964;50.428;19.218;2023-09-19T00:27:32;27.8;;;15.5;;
41229;SDS011;26964;50.428;19.218;2023-09-19T00:28:32;22.9;;;14.5;;
41229;SDS011;26964;50.428;19.218;2023-09-19T00:29:32;24.3;;;14.5;;
41229;SDS011;26964;50.428;19.218;2023-09-19T00:30:33;23.4;;;13.9;;
41229;SDS011;26964;50.428;19.218;2023-09-19T00:31:32;26.7;;;14.2;;
41229;SDS011;26964;50.428;19.218;2023-09-19T00:32:32;24.0;;;13.9;;
41229;SDS011;26964;50.428;19.218;2023-09-19T00:33:32;23.4;;;15.0;;
41229;SDS011;26964;50.428;19.218;2023-09-19T00:34:32;29.7;;;14.7;;
41229;SDS011;26964;50.428;19.218;2023-09-19T00:35:33;24.0;;;14.8;;
41229;SDS011;26964;50.428;19.218;2023-09-19T00:36:33;24.2;;;15.7;;
41229;SDS011;26964;50.428;19.218;2023-09-19T00:37:32;21.2;;;14.7;;
41229;SDS011;26964;50.428;19.218;2023-09-19T00:38:32;26.8;;;14.3;;
41229;SDS011;26964;50.428;19.218;2023-09-19T00:39:32;25.4;;;14.2;;
41229;SDS011;26964;50.428;19.218;2023-09-19T00:40:32;26.9;;;15.3;;
41229;SDS011;26964;50.428;19.218;2023-09-19T00:41:32;25.9;;;15.5;;
41229;SDS011;26964;50.428;19.218;2023-09-19T00:42:32;23.7;;;14.8;;
41229;SDS011;26964;50.428;19.218;2023-09-19T00:43:32;28.1;;;16.0;;
41229;SDS011;26964;50.428;19.218;2023-09-19T00:44:32;29.5;;;15.7;;
41229;SDS011;26964;50.428;19.218;2023-09-19T00:45:33;25.2;;;15.9;;
41229;SDS011;26964;50.428;19.218;2023-09-19T00:46:32;25.5;;;16.1;;
41229;SDS011;26964;50.428;19.218;2023-09-19T00:47:32;27.4;;;16.4;;
41229;SDS011;26964;50.428;19.218;2023-09-19T00:48:32;26.3;;;15.3;;
41229;SDS011;26964;50.428;19.218;2023-09-19T00:49:32;22.9;;;15.2;;
41229;SDS011;26964;50.428;19.218;2023-09-19T00:50:32;23.6;;;15.0;;
41229;SDS011;26964;50.428;19.218;2023-09-19T00:51:32;27.9;;;15.5;;
41229;SDS011;26964;50.428;19.218;2023-09-19T00:52:33;24.2;;;15.3;;
41229;SDS011;26964;50.428;19.218;2023-09-19T00:53:32;22.0;;;14.4;;
41229;SDS011;26964;50.428;19.218;2023-09-19T00:54:32;28.7;;;15.8;;
41229;SDS011;26964;50.428;19.218;2023-09-19T00:55:32;25.8;;;15.1;;
41229;SDS011;26964;50.428;19.218;2023-09-19T00:56:32;24.4;;;15.5;;
41229;SDS011;26964;50.428;19.218;2023-09-19T00:57:32;25.0;;;16.1;;
41229;SDS011;26964;50.428;19.218;2023-09-19T00:58:33;25.5;;;14.8;;
41229;SDS011;26964;50.428;19.218;2023-09-19T00:59:32;25.9;;;15.5;;
41229;SDS011;26964;50.428;19.218;2023-09-19T01:00:33;23.3;;;14.5;;
41229;SDS011;26964;50.428;19.218;2023-09-19T01:01:32;24.9;;;15.5;;
41229;SDS011;26964;50.428;19.218;2023-09-19T01:02:32;24.7;;;15.8;;
41229;SDS011;26964;50.428;19.218;2023-09-19T01:03:33;22.4;;;15.0;;
41229;SDS011;26964;50.428;19.218;2023-09-19T01:04:32;24.8;;;16.3;;
41229;SDS011;26964;50.428;19.218;2023-09-19T01:05:33;21.7;;;14.9;;
41229;SDS011;26964;50.428;19.218;2023-09-19T01:06:32;22.6;;;15.4;;
41229;SDS011;26964;50.428;19.218;2023-09-19T01:07:32;23.2;;;15.6;;
41229;SDS011;26964;50.428;19.218;2023-09-19T01:08:32;24.1;;;15.2;;
41229;SDS011;26964;50.428;19.218;2023-09-19T01:09:32;23.0;;;15.3;;
41229;SDS011;26964;50.428;19.218;2023-09-19T01:10:32;21.1;;;14.7;;
41229;SDS011;26964;50.428;19.218;2023-09-19T01:11:33;24.9;;;15.4;;
41229;SDS011;26964;50.428;19.218;2023-09-19T01:12:35;23.4;;;14.8;;
41229;SDS011;26964;50.428;19.218;2023-09-19T01:13:34;30.3;;;16.2;;
41229;SDS011;26964;50.428;19.218;2023-09-19T01:14:34;22.4;;;15.3;;
41229;SDS011;26964;50.428;19.218;2023-09-19T01:16:35;23.8;;;15.1;;
41229;SDS011;26964;50.428;19.218;2023-09-19T01:17:34;23.6;;;15.5;;
41229;SDS011;26964;50.428;19.218;2023-09-19T01:18:35;27.6;;;15.3;;
41229;SDS011;26964;50.428;19.218;2023-09-19T01:20:35;21.6;;;14.1;;
41229;SDS011;26964;50.428;19.218;2023-09-19T01:21:35;27.1;;;16.1;;
41229;SDS011;26964;50.428;19.218;2023-09-19T01:22:35;28.8;;;16.1;;
41229;SDS011;26964;50.428;19.218;2023-09-19T01:24:37;28.8;;;15.6;;
41229;SDS011;26964;50.428;19.218;2023-09-19T01:25:39;25.1;;;15.8;;
41229;SDS011;26964;50.428;19.218;2023-09-19T01:28:34;24.1;;;15.4;;
41229;SDS011;26964;50.428;19.218;2023-09-19T01:29:33;23.7;;;15.3;;
41229;SDS011;26964;50.428;19.218;2023-09-19T01:30:33;24.3;;;15.6;;
41229;SDS011;26964;50.428;19.218;2023-09-19T01:31:33;27.0;;;15.1;;
41229;SDS011;26964;50.428;19.218;2023-09-19T01:32:32;26.2;;;15.3;;
41229;SDS011;26964;50.428;19.218;2023-09-19T01:35:32;26.0;;;16.0;;
41229;SDS011;26964;50.428;19.218;2023-09-19T01:36:33;25.9;;;15.5;;
41229;SDS011;26964;50.428;19.218;2023-09-19T01:37:32;26.6;;;15.4;;
41229;SDS011;26964;50.428;19.218;2023-09-19T01:38:32;24.6;;;15.7;;
41229;SDS011;26964;50.428;19.218;2023-09-19T01:39:32;26.7;;;16.3;;
41229;SDS011;26964;50.428;19.218;2023-09-19T01:40:32;28.4;;;15.4;;
41229;SDS011;26964;50.428;19.218;2023-09-19T01:41:35;24.3;;;15.7;;
41229;SDS011;26964;50.428;19.218;2023-09-19T01:42:35;26.3;;;15.4;;
41229;SDS011;26964;50.428;19.218;2023-09-19T01:43:33;27.1;;;15.3;;
41229;SDS011;26964;50.428;19.218;2023-09-19T01:45:33;24.6;;;16.0;;
41229;SDS011;26964;50.428;19.218;2023-09-19T01:46:33;25.8;;;14.7;;
41229;SDS011;26964;50.428;19.218;2023-09-19T01:47:33;28.7;;;15.7;;
41229;SDS011;26964;50.428;19.218;2023-09-19T01:48:34;29.5;;;15.3;;
41229;SDS011;26964;50.428;19.218;2023-09-19T01:49:33;29.5;;;16.3;;
41229;SDS011;26964;50.428;19.218;2023-09-19T01:50:33;27.0;;;16.3;;
41229;SDS011;26964;50.428;19.218;2023-09-19T01:51:34;26.2;;;15.2;;
41229;SDS011;26964;50.428;19.218;2023-09-19T01:52:34;25.5;;;15.5;;
41229;SDS011;26964;50.428;19.218;2023-09-19T01:53:33;23.7;;;15.1;;
41229;SDS011;26964;50.428;19.218;2023-09-19T01:54:33;27.7;;;16.2;;
41229;SDS011;26964;50.428;19.218;2023-09-19T01:55:34;26.1;;;16.1;;
41229;SDS011;26964;50.428;19.218;2023-09-19T01:56:34;26.5;;;16.4;;
41229;SDS011;26964;50.428;19.218;2023-09-19T01:57:33;26.6;;;17.0;;
41229;SDS011;26964;50.428;19.218;2023-09-19T01:58:34;22.1;;;15.3;;
41229;SDS011;26964;50.428;19.218;2023-09-19T01:59:35;23.1;;;16.0;;
41229;SDS011;26964;50.428;19.218;2023-09-19T02:00:32;26.6;;;16.2;;
41229;SDS011;26964;50.428;19.218;2023-09-19T02:01:32;27.5;;;16.1;;
41229;SDS011;26964;50.428;19.218;2023-09-19T02:02:33;24.8;;;15.7;;
41229;SDS011;26964;50.428;19.218;2023-09-19T02:03:33;24.6;;;14.8;;
41229;SDS011;26964;50.428;19.218;2023-09-19T02:04:32;25.6;;;15.4;;
41229;SDS011;26964;50.428;19.218;2023-09-19T02:05:32;24.5;;;14.6;;
41229;SDS011;26964;50.428;19.218;2023-09-19T02:06:32;24.9;;;14.5;;
41229;SDS011;26964;50.428;19.218;2023-09-19T02:07:32;22.6;;;14.8;;
41229;SDS011;26964;50.428;19.218;2023-09-19T02:08:32;22.7;;;14.6;;
41229;SDS011;26964;50.428;19.218;2023-09-19T02:09:32;22.0;;;14.6;;
41229;SDS011;26964;50.428;19.218;2023-09-19T02:10:32;23.9;;;14.9;;
41229;SDS011;26964;50.428;19.218;2023-09-19T02:11:32;25.1;;;15.2;;
41229;SDS011;26964;50.428;19.218;2023-09-19T02:12:32;27.5;;;14.7;;
41229;SDS011;26964;50.428;19.218;2023-09-19T02:13:32;32.4;;;16.5;;
41229;SDS011;26964;50.428;19.218;2023-09-19T02:14:32;23.2;;;14.7;;
41229;SDS011;26964;50.428;19.218;2023-09-19T02:15:32;25.0;;;15.2;;
41229;SDS011;26964;50.428;19.218;2023-09-19T02:16:32;24.5;;;15.6;;
41229;SDS011;26964;50.428;19.218;2023-09-19T02:17:32;26.5;;;15.2;;
41229;SDS011;26964;50.428;19.218;2023-09-19T02:18:32;27.4;;;15.1;;
41229;SDS011;26964;50.428;19.218;2023-09-19T02:19:32;24.3;;;14.5;;
41229;SDS011;26964;50.428;19.218;2023-09-19T02:20:32;21.7;;;14.9;;
41229;SDS011;26964;50.428;19.218;2023-09-19T02:21:32;28.0;;;15.0;;
41229;SDS011;26964;50.428;19.218;2023-09-19T02:22:32;24.7;;;14.7;;
41229;SDS011;26964;50.428;19.218;2023-09-19T02:23:32;23.3;;;14.1;;
41229;SDS011;26964;50.428;19.218;2023-09-19T02:24:32;30.8;;;15.7;;
41229;SDS011;26964;50.428;19.218;2023-09-19T02:25:32;29.0;;;15.2;;
41229;SDS011;26964;50.428;19.218;2023-09-19T02:26:32;27.6;;;13.5;;
41229;SDS011;26964;50.428;19.218;2023-09-19T02:27:32;30.4;;;14.8;;
41229;SDS011;26964;50.428;19.218;2023-09-19T02:28:32;25.9;;;14.2;;
41229;SDS011;26964;50.428;19.218;2023-09-19T02:29:32;27.4;;;13.9;;
41229;SDS011;26964;50.428;19.218;2023-09-19T02:30:32;22.5;;;13.1;;
41229;SDS011;26964;50.428;19.218;2023-09-19T02:31:32;26.8;;;15.0;;
41229;SDS011;26964;50.428;19.218;2023-09-19T02:32:32;31.4;;;15.1;;
41229;SDS011;26964;50.428;19.218;2023-09-19T02:33:32;21.5;;;13.9;;
41229;SDS011;26964;50.428;19.218;2023-09-19T02:34:32;27.6;;;14.1;;
41229;SDS011;26964;50.428;19.218;2023-09-19T02:35:32;33.4;;;14.4;;
41229;SDS011;26964;50.428;19.218;2023-09-19T02:36:32;28.6;;;14.7;;
41229;SDS011;26964;50.428;19.218;2023-09-19T02:37:32;27.3;;;14.5;;
41229;SDS011;26964;50.428;19.218;2023-09-19T02:38:32;27.5;;;14.8;;
41229;SDS011;26964;50.428;19.218;2023-09-19T02:39:32;29.4;;;16.3;;
41229;SDS011;26964;50.428;19.218;2023-09-19T02:40:32;27.9;;;15.7;;
41229;SDS011;26964;50.428;19.218;2023-09-19T02:41:32;33.9;;;16.0;;
41229;SDS011;26964;50.428;19.218;2023-09-19T02:42:32;27.1;;;15.2;;
41229;SDS011;26964;50.428;19.218;2023-09-19T02:43:32;33.5;;;16.9;;
41229;SDS011;26964;50.428;19.218;2023-09-19T02:44:32;25.0;;;15.6;;
41229;SDS011;26964;50.428;19.218;2023-09-19T02:45:32;30.8;;;15.4;;
41229;SDS011;26964;50.428;19.218;2023-09-19T02:46:32;27.7;;;15.8;;
41229;SDS011;26964;50.428;19.218;2023-09-19T02:47:32;30.0;;;16.6;;
41229;SDS011;26964;50.428;19.218;2023-09-19T02:48:32;26.6;;;15.3;;
41229;SDS011;26964;50.428;19.218;2023-09-19T02:49:32;26.1;;;16.2;;
41229;SDS011;26964;50.428;19.218;2023-09-19T02:50:32;27.8;;;15.2;;
41229;SDS011;26964;50.428;19.218;2023-09-19T02:51:32;26.2;;;15.6;;
41229;SDS011;26964;50.428;19.218;2023-09-19T02:52:32;28.3;;;15.9;;
41229;SDS011;26964;50.428;19.218;2023-09-19T02:53:32;23.0;;;16.0;;
41229;SDS011;26964;50.428;19.218;2023-09-19T02:54:32;27.0;;;15.0;;
41229;SDS011;26964;50.428;19.218;2023-09-19T02:55:32;23.2;;;14.5;;
41229;SDS011;26964;50.428;19.218;2023-09-19T02:56:32;22.5;;;14.6;;
41229;SDS011;26964;50.428;19.218;2023-09-19T02:57:32;30.6;;;16.4;;
41229;SDS011;26964;50.428;19.218;2023-09-19T02:58:32;24.8;;;15.6;;
41229;SDS011;26964;50.428;19.218;2023-09-19T02:59:32;24.4;;;14.8;;
41229;SDS011;26964;50.428;19.218;2023-09-19T03:00:32;23.5;;;15.4;;
41229;SDS011;26964;50.428;19.218;2023-09-19T03:01:32;23.1;;;15.0;;
41229;SDS011;26964;50.428;19.218;2023-09-19T03:02:32;19.9;;;14.3;;
41229;SDS011;26964;50.428;19.218;2023-09-19T03:03:32;22.5;;;14.2;;
41229;SDS011;26964;50.428;19.218;2023-09-19T03:04:32;26.1;;;15.7;;
41229;SDS011;26964;50.428;19.218;2023-09-19T03:05:32;22.9;;;15.0;;
41229;SDS011;26964;50.428;19.218;2023-09-19T03:06:32;25.6;;;16.5;;
41229;SDS011;26964;50.428;19.218;2023-09-19T03:07:32;20.5;;;15.1;;
41229;SDS011;26964;50.428;19.218;2023-09-19T03:08:32;21.0;;;15.1;;
41229;SDS011;26964;50.428;19.218;2023-09-19T03:09:32;21.0;;;15.4;;
41229;SDS011;26964;50.428;19.218;2023-09-19T03:10:32;21.5;;;15.3;;
41229;SDS011;26964;50.428;19.218;2023-09-19T03:11:32;22.1;;;15.4;;
41229;SDS011;26964;50.428;19.218;2023-09-19T03:12:32;21.8;;;15.9;;
41229;SDS011;26964;50.428;19.218;2023-09-19T03:13:32;18.7;;;15.4;;
41229;SDS011;26964;50.428;19.218;2023-09-19T03:14:32;21.6;;;14.6;;
41229;SDS011;26964;50.428;19.218;2023-09-19T03:15:32;21.3;;;14.7;;
41229;SDS011;26964;50.428;19.218;2023-09-19T03:16:32;22.3;;;14.9;;
41229;SDS011;26964;50.428;19.218;2023-09-19T03:17:32;21.7;;;14.9;;
41229;SDS011;26964;50.428;19.218;2023-09-19T03:18:33;21.4;;;14.7;;
41229;SDS011;26964;50.428;19.218;2023-09-19T03:19:32;19.6;;;14.5;;
41229;SDS011;26964;50.428;19.218;2023-09-19T03:20:32;23.9;;;15.2;;
41229;SDS011;26964;50.428;19.218;2023-09-19T03:21:32;21.6;;;14.5;;
41229;SDS011;26964;50.428;19.218;2023-09-19T03:22:32;19.5;;;14.2;;
41229;SDS011;26964;50.428;19.218;2023-09-19T03:23:32;20.2;;;15.2;;
41229;SDS011;26964;50.428;19.218;2023-09-19T03:24:32;21.5;;;14.7;;
41229;SDS011;26964;50.428;19.218;2023-09-19T03:25:33;18.0;;;14.3;;
41229;SDS011;26964;50.428;19.218;2023-09-19T03:26:32;23.6;;;15.1;;
41229;SDS011;26964;50.428;19.218;2023-09-19T03:27:32;18.3;;;15.0;;
41229;SDS011;26964;50.428;19.218;2023-09-19T03:28:33;19.1;;;14.3;;
41229;SDS011;26964;50.428;19.218;2023-09-19T03:29:32;18.7;;;14.7;;
41229;SDS011;26964;50.428;19.218;2023-09-19T03:30:32;20.1;;;14.6;;
41229;SDS011;26964;50.428;19.218;2023-09-19T03:31:32;18.7;;;14.6;;
41229;SDS011;26964;50.428;19.218;2023-09-19T03:32:32;21.0;;;14.8;;
41229;SDS011;26964;50.428;19.218;2023-09-19T03:33:32;20.7;;;13.7;;
41229;SDS011;26964;50.428;19.218;2023-09-19T03:34:32;17.8;;;13.9;;
41229;SDS011;26964;50.428;19.218;2023-09-19T03:35:32;18.1;;;14.5;;
41229;SDS011;26964;50.428;19.218;2023-09-19T03:36:32;19.6;;;13.2;;
41229;SDS011;26964;50.428;19.218;2023-09-19T03:37:32;15.3;;;13.7;;
41229;SDS011;26964;50.428;19.218;2023-09-19T03:38:32;15.7;;;13.1;;
41229;SDS011;26964;50.428;19.218;2023-09-19T03:39:32;20.7;;;14.3;;
41229;SDS011;26964;50.428;19.218;2023-09-19T03:40:32;16.3;;;14.2;;
41229;SDS011;26964;50.428;19.218;2023-09-19T03:41:32;15.9;;;13.4;;
41229;SDS011;26964;50.428;19.218;2023-09-19T03:42:32;17.9;;;13.9;;
41229;SDS011;26964;50.428;19.218;2023-09-19T03:43:32;18.2;;;12.8;;
41229;SDS011;26964;50.428;19.218;2023-09-19T03:44:32;19.5;;;14.4;;
41229;SDS011;26964;50.428;19.218;2023-09-19T03:45:33;19.5;;;13.8;;
41229;SDS011;26964;50.428;19.218;2023-09-19T03:46:32;18.9;;;13.3;;
41229;SDS011;26964;50.428;19.218;2023-09-19T03:47:32;17.9;;;14.6;;
41229;SDS011;26964;50.428;19.218;2023-09-19T03:48:33;18.8;;;14.8;;
41229;SDS011;26964;50.428;19.218;2023-09-19T03:49:32;19.0;;;13.7;;
41229;SDS011;26964;50.428;19.218;2023-09-19T03:50:32;16.7;;;14.1;;
41229;SDS011;26964;50.428;19.218;2023-09-19T03:51:32;16.5;;;13.2;;
41229;SDS011;26964;50.428;19.218;2023-09-19T03:52:32;17.4;;;14.7;;
41229;SDS011;26964;50.428;19.218;2023-09-19T03:53:32;16.8;;;14.1;;
41229;SDS011;26964;50.428;19.218;2023-09-19T03:54:32;18.5;;;14.3;;
41229;SDS011;26964;50.428;19.218;2023-09-19T03:55:32;19.4;;;15.0;;
41229;SDS011;26964;50.428;19.218;2023-09-19T03:56:32;18.7;;;14.5;;
41229;SDS011;26964;50.428;19.218;2023-09-19T03:57:32;17.6;;;14.7;;
41229;SDS011;26964;50.428;19.218;2023-09-19T03:58:32;17.9;;;13.9;;
41229;SDS011;26964;50.428;19.218;2023-09-19T03:59:32;17.9;;;15.2;;
41229;SDS011;26964;50.428;19.218;2023-09-19T04:00:32;17.2;;;14.5;;
41229;SDS011;26964;50.428;19.218;2023-09-19T04:01:32;18.6;;;14.7;;
41229;SDS011;26964;50.428;19.218;2023-09-19T04:02:32;17.1;;;13.8;;
41229;SDS011;26964;50.428;19.218;2023-09-19T04:03:32;19.8;;;14.2;;
41229;SDS011;26964;50.428;19.218;2023-09-19T04:04:32;19.0;;;14.7;;
41229;SDS011;26964;50.428;19.218;2023-09-19T04:05:32;16.0;;;14.2;;
41229;SDS011;26964;50.428;19.218;2023-09-19T04:06:32;18.8;;;14.9;;
41229;SDS011;26964;50.428;19.218;2023-09-19T04:07:32;17.5;;;15.4;;
41229;SDS011;26964;50.428;19.218;2023-09-19T04:08:32;22.1;;;14.7;;
41229;SDS011;26964;50.428;19.218;2023-09-19T04:09:32;20.9;;;14.4;;
41229;SDS011;26964;50.428;19.218;2023-09-19T04:10:32;17.8;;;14.7;;
41229;SDS011;26964;50.428;19.218;2023-09-19T04:11:32;19.5;;;14.3;;
41229;SDS011;26964;50.428;19.218;2023-09-19T04:12:32;18.0;;;14.2;;
41229;SDS011;26964;50.428;19.218;2023-09-19T04:13:32;17.2;;;14.9;;
41229;SDS011;26964;50.428;19.218;2023-09-19T04:14:32;20.3;;;16.0;;
41229;SDS011;26964;50.428;19.218;2023-09-19T04:15:32;16.5;;;14.5;;
41229;SDS011;26964;50.428;19.218;2023-09-19T04:16:32;18.5;;;14.2;;
41229;SDS011;26964;50.428;19.218;2023-09-19T04:17:32;18.8;;;14.9;;
41229;SDS011;26964;50.428;19.218;2023-09-19T04:18:32;20.3;;;14.8;;
41229;SDS011;26964;50.428;19.218;2023-09-19T04:19:32;16.2;;;14.2;;
41229;SDS011;26964;50.428;19.218;2023-09-19T04:20:32;18.3;;;14.7;;
41229;SDS011;26964;50.428;19.218;2023-09-19T04:21:32;20.8;;;15.7;;
41229;SDS011;26964;50.428;19.218;2023-09-19T04:22:32;17.7;;;15.8;;
41229;SDS011;26964;50.428;19.218;2023-09-19T04:23:32;20.5;;;15.4;;
41229;SDS011;26964;50.428;19.218;2023-09-19T04:24:32;15.9;;;14.2;;
41229;SDS011;26964;50.428;19.218;2023-09-19T04:25:32;18.7;;;15.8;;
41229;SDS011;26964;50.428;19.218;2023-09-19T04:26:32;20.0;;;16.3;;
41229;SDS011;26964;50.428;19.218;2023-09-19T04:27:32;19.4;;;15.4;;
41229;SDS011;26964;50.428;19.218;2023-09-19T04:28:32;17.5;;;15.2;;
41229;SDS011;26964;50.428;19.218;2023-09-19T04:29:32;18.3;;;15.0;;
41229;SDS011;26964;50.428;19.218;2023-09-19T04:30:32;25.4;;;15.4;;
41229;SDS011;26964;50.428;19.218;2023-09-19T04:31:32;16.5;;;14.5;;
41229;SDS011;26964;50.428;19.218;2023-09-19T04:32:32;20.6;;;15.9;;
41229;SDS011;26964;50.428;19.218;2023-09-19T04:33:32;21.0;;;16.0;;
41229;SDS011;26964;50.428;19.218;2023-09-19T04:34:32;17.4;;;15.4;;
41229;SDS011;26964;50.428;19.218;2023-09-19T04:35:32;17.7;;;15.8;;
41229;SDS011;26964;50.428;19.218;2023-09-19T04:36:32;18.6;;;16.3;;
41229;SDS011;26964;50.428;19.218;2023-09-19T04:37:32;18.4;;;16.1;;
41229;SDS011;26964;50.428;19.218;2023-09-19T04:38:32;22.8;;;15.6;;
41229;SDS011;26964;50.428;19.218;2023-09-19T04:39:32;21.6;;;16.9;;
41229;SDS011;26964;50.428;19.218;2023-09-19T04:40:32;17.9;;;16.0;;
41229;SDS011;26964;50.428;19.218;2023-09-19T04:41:32;19.8;;;17.3;;
41229;SDS011;26964;50.428;19.218;2023-09-19T04:42:32;20.8;;;16.7;;
41229;SDS011;26964;50.428;19.218;2023-09-19T04:43:32;22.0;;;16.4;;
41229;SDS011;26964;50.428;19.218;2023-09-19T04:44:32;19.3;;;16.3;;
41229;SDS011;26964;50.428;19.218;2023-09-19T04:45:32;17.4;;;15.5;;
41229;SDS011;26964;50.428;19.218;2023-09-19T04:46:32;21.8;;;17.3;;
41229;SDS011;26964;50.428;19.218;2023-09-19T04:47:32;22.3;;;17.5;;
41229;SDS011;26964;50.428;19.218;2023-09-19T04:48:32;21.9;;;17.7;;
41229;SDS011;26964;50.428;19.218;2023-09-19T04:49:32;18.8;;;16.7;;
41229;SDS011;26964;50.428;19.218;2023-09-19T04:50:32;20.6;;;16.3;;
41229;SDS011;26964;50.428;19.218;2023-09-19T04:51:32;23.7;;;17.3;;
41229;SDS011;26964;50.428;19.218;2023-09-19T04:52:32;22.1;;;17.8;;
41229;SDS011;26964;50.428;19.218;2023-09-19T04:53:32;20.6;;;17.5;;
41229;SDS011;26964;50.428;19.218;2023-09-19T04:54:32;20.9;;;16.9;;
41229;SDS011;26964;50.428;19.218;2023-09-19T04:55:32;20.2;;;17.0;;
41229;SDS011;26964;50.428;19.218;2023-09-19T04:56:32;22.5;;;18.2;;
41229;SDS011;26964;50.428;19.218;2023-09-19T04:57:32;21.3;;;18.2;;
41229;SDS011;26964;50.428;19.218;2023-09-19T04:58:32;19.5;;;17.3;;
41229;SDS011;26964;50.428;19.218;2023-09-19T04:59:32;20.4;;;17.8;;
41229;SDS011;26964;50.428;19.218;2023-09-19T05:00:32;20.9;;;17.7;;
41229;SDS011;26964;50.428;19.218;2023-09-19T05:01:32;21.1;;;18.2;;
41229;SDS011;26964;50.428;19.218;2023-09-19T05:02:32;21.8;;;19.1;;
41229;SDS011;26964;50.428;19.218;2023-09-19T05:03:32;22.1;;;18.7;;
41229;SDS011;26964;50.428;19.218;2023-09-19T05:04:32;21.3;;;19.0;;
41229;SDS011;26964;50.428;19.218;2023-09-19T05:05:32;20.5;;;17.2;;
41229;SDS011;26964;50.428;19.218;2023-09-19T05:06:32;22.3;;;18.7;;
41229;SDS011;26964;50.428;19.218;2023-09-19T05:07:32;22.3;;;18.8;;
41229;SDS011;26964;50.428;19.218;2023-09-19T05:08:32;24.6;;;18.2;;
41229;SDS011;26964;50.428;19.218;2023-09-19T05:09:32;26.1;;;19.0;;
41229;SDS011;26964;50.428;19.218;2023-09-19T05:10:32;23.2;;;18.4;;
41229;SDS011;26964;50.428;19.218;2023-09-19T05:11:32;23.9;;;19.1;;
41229;SDS011;26964;50.428;19.218;2023-09-19T05:12:33;26.1;;;18.8;;
41229;SDS011;26964;50.428;19.218;2023-09-19T05:13:32;21.9;;;18.9;;
41229;SDS011;26964;50.428;19.218;2023-09-19T05:14:32;24.9;;;19.1;;
41229;SDS011;26964;50.428;19.218;2023-09-19T05:15:32;22.7;;;19.4;;
41229;SDS011;26964;50.428;19.218;2023-09-19T05:16:32;22.8;;;19.5;;
41229;SDS011;26964;50.428;19.218;2023-09-19T05:17:33;23.8;;;19.1;;
41229;SDS011;26964;50.428;19.218;2023-09-19T05:18:32;26.5;;;21.0;;
41229;SDS011;26964;50.428;19.218;2023-09-19T05:19:32;24.2;;;20.5;;
41229;SDS011;26964;50.428;19.218;2023-09-19T05:20:32;24.2;;;20.2;;
41229;SDS011;26964;50.428;19.218;2023-09-19T05:21:32;22.4;;;19.6;;
41229;SDS011;26964;50.428;19.218;2023-09-19T05:22:32;25.7;;;20.7;;
41229;SDS011;26964;50.428;19.218;2023-09-19T05:23:32;24.1;;;20.7;;
41229;SDS011;26964;50.428;19.218;2023-09-19T05:24:32;26.0;;;20.9;;
41229;SDS011;26964;50.428;19.218;2023-09-19T05:25:32;27.0;;;21.8;;
41229;SDS011;26964;50.428;19.218;2023-09-19T05:26:32;24.5;;;21.2;;
41229;SDS011;26964;50.428;19.218;2023-09-19T05:27:32;22.7;;;20.2;;
41229;SDS011;26964;50.428;19.218;2023-09-19T05:28:32;27.5;;;20.1;;
41229;SDS011;26964;50.428;19.218;2023-09-19T05:29:32;23.0;;;20.5;;
41229;SDS011;26964;50.428;19.218;2023-09-19T05:30:32;25.2;;;21.5;;
41229;SDS011;26964;50.428;19.218;2023-09-19T05:31:32;26.7;;;21.8;;
41229;SDS011;26964;50.428;19.218;2023-09-19T05:32:32;29.4;;;21.5;;
41229;SDS011;26964;50.428;19.218;2023-09-19T05:33:32;28.7;;;21.0;;
41229;SDS011;26964;50.428;19.218;2023-09-19T05:34:32;22.6;;;20.2;;
41229;SDS011;26964;50.428;19.218;2023-09-19T05:35:32;25.2;;;21.4;;
41229;SDS011;26964;50.428;19.218;2023-09-19T05:36:32;25.3;;;20.9;;
41229;SDS011;26964;50.428;19.218;2023-09-19T05:37:32;25.0;;;22.3;;
41229;SDS011;26964;50.428;19.218;2023-09-19T05:38:32;23.8;;;20.9;;
41229;SDS011;26964;50.428;19.218;2023-09-19T05:39:32;26.7;;;22.3;;
41229;SDS011;26964;50.428;19.218;2023-09-19T05:40:32;25.1;;;21.6;;
41229;SDS011;26964;50.428;19.218;2023-09-19T05:41:32;24.2;;;21.2;;
41229;SDS011;26964;50.428;19.218;2023-09-19T05:42:32;25.8;;;21.8;;
41229;SDS011;26964;50.428;19.218;2023-09-19T05:43:32;25.0;;;21.8;;
41229;SDS011;26964;50.428;19.218;2023-09-19T05:44:32;28.2;;;23.4;;
41229;SDS011;26964;50.428;19.218;2023-09-19T05:45:32;23.8;;;21.3;;
41229;SDS011;26964;50.428;19.218;2023-09-19T05:46:32;27.1;;;21.9;;
41229;SDS011;26964;50.428;19.218;2023-09-19T05:47:32;27.0;;;23.2;;
41229;SDS011;26964;50.428;19.218;2023-09-19T05:48:32;26.2;;;22.3;;
41229;SDS011;26964;50.428;19.218;2023-09-19T05:49:32;28.7;;;23.2;;
41229;SDS011;26964;50.428;19.218;2023-09-19T05:50:32;28.8;;;23.2;;
41229;SDS011;26964;50.428;19.218;2023-09-19T05:51:32;27.7;;;22.9;;
41229;SDS011;26964;50.428;19.218;2023-09-19T05:52:32;32.2;;;24.6;;
41229;SDS011;26964;50.428;19.218;2023-09-19T05:53:32;29.8;;;23.9;;
41229;SDS011;26964;50.428;19.218;2023-09-19T05:54:32;27.9;;;23.7;;
41229;SDS011;26964;50.428;19.218;2023-09-19T05:55:32;27.3;;;22.8;;
41229;SDS011;26964;50.428;19.218;2023-09-19T05:56:32;29.5;;;24.2;;
41229;SDS011;26964;50.428;19.218;2023-09-19T05:57:32;28.5;;;23.2;;
41229;SDS011;26964;50.428;19.218;2023-09-19T05:58:32;25.9;;;23.1;;
41229;SDS011;26964;50.428;19.218;2023-09-19T05:59:32;30.2;;;23.3;;
41229;SDS011;26964;50.428;19.218;2023-09-19T06:00:32;29.3;;;23.0;;
41229;SDS011;26964;50.428;19.218;2023-09-19T06:01:32;29.6;;;23.4;;
41229;SDS011;26964;50.428;19.218;2023-09-19T06:02:32;28.1;;;23.2;;
41229;SDS011;26964;50.428;19.218;2023-09-19T06:03:32;33.1;;;24.0;;
41229;SDS011;26964;50.428;19.218;2023-09-19T06:04:32;28.7;;;22.9;;